• Join FlightAware (Why Join?)
  • Login
  • US Flag 
03:28PM EDT


 

Airport Tracker/Info


-or-


 

Live Flight TrackerFlight Track Log ✈ KAP444 ✈ 27-Apr-2013 ✈ KBOS - KACK

Flight Track Log - Related Links

Times and Time Zones

All times are in EDT time to prevent confusion due to time zone crossing. See the KAP444 flight status page for this flight to view local times or setup timezone preferences in your user account.

Time Position Orientation Groundspeed Altitude Reporting Facility
EDT Latitude Longitude Course Direction KTS MPH feet Rate Location/Type
04:19PM 42.3500 -70.9667 90° East 103 119 1,100  Level KA90
04:20PM 42.3500 -70.9167 90° East 117 135 1,800 600 Climbing KA90
04:21PM 42.3333 -70.8667 114° Southeast 133 153 2,400 540 Climbing KA90
04:22PM 42.3000 -70.8333 144° Southeast 136 157 3,000 540 Climbing KA90
04:23PM 42.2667 -70.8167 160° South 137 158 3,600 540 Climbing KA90
04:24PM 42.2333 -70.7833 143° Southeast 144 166 4,100 600 Climbing KA90
04:25PM 42.2000 -70.7667 160° South 145 167 4,800 660 Climbing KA90
04:27PM 42.1369 -70.7189 116° Southeast  Level Estimated
04:34PM 41.9023 -70.5420 114° Southeast  Level Estimated
04:35PM 41.9135 -70.4926 73° East  Level FlightAware Approximate
04:36PM 41.9247 -70.4433 73° East  Level FlightAware Approximate
04:37PM 41.9359 -70.3939 73° East  Level FlightAware Approximate
04:38PM 41.9470 -70.3444 73° East  Level FlightAware Approximate
04:39PM 41.9582 -70.2950 73° East  Level FlightAware Approximate
04:40PM 41.9209 -70.2825 180° South  Level Estimated
04:41PM 41.8877 -70.2566 150° Southeast  Level FlightAware Approximate
04:42PM 41.8545 -70.2307 150° Southeast  Level FlightAware Approximate
04:43PM 41.8213 -70.2048 150° Southeast  Level FlightAware Approximate
04:44PM 41.7880 -70.1789 150° Southeast  Level FlightAware Approximate
04:45PM 41.7548 -70.1531 150° Southeast  Level FlightAware Approximate
04:46PM 41.7215 -70.1273 150° Southeast  Level FlightAware Approximate
04:47PM 41.6883 -70.1016 150° Southeast  Level FlightAware Approximate
04:48PM 41.6550 -70.0759 150° Southeast  Level FlightAware Approximate
04:49PM 41.6218 -70.0501 150° Southeast  Level FlightAware Approximate
04:50PM 41.5885 -70.0245 150° Southeast  Level FlightAware Approximate
04:51PM 41.5935 -70.0346 189° South  Level FlightAware Approximate
04:52PM 41.5555 -70.0422 189° South  Level FlightAware Approximate
04:53PM 41.5175 -70.0498 189° South  Level FlightAware Approximate
04:54PM 41.4791 -70.0500 180° South  Level FlightAware Approximate
04:55PM 41.4407 -70.0500 180° South  Level FlightAware Approximate
04:56PM 41.4023 -70.0500 180° South  Level FlightAware Approximate
04:57PM 41.3639 -70.0500 180° South  Level FlightAware Approximate
04:58PM 41.3255 -70.0500 180° South  Level FlightAware Approximate
04:59PM 41.2871 -70.0500 180° South  Level FlightAware Approximate
05:00PM 41.2500 -70.0500 180° South  Level FlightAware Approximate
05:01PM 41.2531 -70.0603 180° South  Level Estimated
05:02PM 41.2531 -70.0603 180° South  Level Estimated
05:03PM 41.2531 -70.0603 180° South  Level Estimated
05:04PM 41.2531 -70.0603 180° South  Level Estimated
05:05PM 41.2531 -70.0603 180° South  Level Estimated
05:06PM 41.2531 -70.0603 180° South  Level Estimated
05:07PM 41.2531 -70.0603 180° South  Level Estimated
05:08PM 41.2531 -70.0603 180° South  Level Estimated
05:09PM 41.2531 -70.0603 180° South  Level Estimated
05:10PM 41.2531 -70.0603 180° South  Level Estimated
05:11PM 41.2531 -70.0603 180° South  Level Estimated
05:12PM 41.2531 -70.0603 180° South  Level Estimated
05:13PM 41.2531 -70.0603 180° South  Level Estimated
05:14PM 41.2531 -70.0603 180° South  Level Estimated
05:15PM 41.2531 -70.0603 180° South  Level Estimated